sensor_id;sensor_type;location;lat;lon;timestamp;temperature;humidity
4411;DHT22;2218;51.408;7.208;2023-03-31T00:02:12;19.90;42.20
4411;DHT22;2218;51.408;7.208;2023-03-31T00:04:39;19.90;42.20
4411;DHT22;2218;51.408;7.208;2023-03-31T00:07:11;19.90;42.20
4411;DHT22;2218;51.408;7.208;2023-03-31T00:09:41;19.80;42.10
4411;DHT22;2218;51.408;7.208;2023-03-31T00:12:10;19.80;42.10
4411;DHT22;2218;51.408;7.208;2023-03-31T00:14:39;19.80;42.10
4411;DHT22;2218;51.408;7.208;2023-03-31T00:17:06;19.80;42.00
4411;DHT22;2218;51.408;7.208;2023-03-31T00:19:33;19.80;42.10
4411;DHT22;2218;51.408;7.208;2023-03-31T00:22:00;19.80;42.10
4411;DHT22;2218;51.408;7.208;2023-03-31T00:24:30;19.80;42.10
4411;DHT22;2218;51.408;7.208;2023-03-31T00:26:58;19.80;42.00
4411;DHT22;2218;51.408;7.208;2023-03-31T00:29:25;19.80;42.00
4411;DHT22;2218;51.408;7.208;2023-03-31T00:31:53;19.80;42.00
4411;DHT22;2218;51.408;7.208;2023-03-31T00:34:21;19.80;42.00
4411;DHT22;2218;51.408;7.208;2023-03-31T00:36:48;19.80;42.10
4411;DHT22;2218;51.408;7.208;2023-03-31T00:39:17;19.80;42.00
4411;DHT22;2218;51.408;7.208;2023-03-31T00:41:44;19.80;42.00
4411;DHT22;2218;51.408;7.208;2023-03-31T00:44:13;19.80;42.00
4411;DHT22;2218;51.408;7.208;2023-03-31T00:46:46;19.80;42.00
4411;DHT22;2218;51.408;7.208;2023-03-31T00:49:24;19.80;42.00
4411;DHT22;2218;51.408;7.208;2023-03-31T00:51:58;19.80;42.00
4411;DHT22;2218;51.408;7.208;2023-03-31T00:54:30;19.80;42.00
4411;DHT22;2218;51.408;7.208;2023-03-31T00:57:00;19.80;42.00
4411;DHT22;2218;51.408;7.208;2023-03-31T00:59:34;19.80;42.00
4411;DHT22;2218;51.408;7.208;2023-03-31T01:02:04;19.80;42.00
4411;DHT22;2218;51.408;7.208;2023-03-31T01:04:37;19.70;41.90
4411;DHT22;2218;51.408;7.208;2023-03-31T01:07:15;19.80;41.90
4411;DHT22;2218;51.408;7.208;2023-03-31T01:09:47;19.80;42.00
4411;DHT22;2218;51.408;7.208;2023-03-31T01:12:20;19.80;41.90
4411;DHT22;2218;51.408;7.208;2023-03-31T01:14:49;19.80;42.00
4411;DHT22;2218;51.408;7.208;2023-03-31T01:17:18;19.70;41.90
4411;DHT22;2218;51.408;7.208;2023-03-31T01:19:57;19.70;41.90
4411;DHT22;2218;51.408;7.208;2023-03-31T01:26:35;19.70;41.80
4411;DHT22;2218;51.408;7.208;2023-03-31T01:29:39;19.70;41.80
4411;DHT22;2218;51.408;7.208;2023-03-31T01:32:55;19.70;41.80
4411;DHT22;2218;51.408;7.208;2023-03-31T01:36:15;19.70;41.80
4411;DHT22;2218;51.408;7.208;2023-03-31T01:42:58;19.70;41.80
4411;DHT22;2218;51.408;7.208;2023-03-31T01:45:43;19.70;41.80
4411;DHT22;2218;51.408;7.208;2023-03-31T01:48:24;19.70;41.80
4411;DHT22;2218;51.408;7.208;2023-03-31T01:51:00;19.70;41.80
4411;DHT22;2218;51.408;7.208;2023-03-31T01:53:38;19.70;41.90
4411;DHT22;2218;51.408;7.208;2023-03-31T01:56:18;19.70;41.90
4411;DHT22;2218;51.408;7.208;2023-03-31T01:58:53;19.70;41.90
4411;DHT22;2218;51.408;7.208;2023-03-31T02:01:29;19.70;41.90
4411;DHT22;2218;51.408;7.208;2023-03-31T02:04:06;19.70;41.90
4411;DHT22;2218;51.408;7.208;2023-03-31T02:06:41;19.70;41.90
4411;DHT22;2218;51.408;7.208;2023-03-31T02:09:17;19.70;41.90
4411;DHT22;2218;51.408;7.208;2023-03-31T02:11:47;19.70;42.00
4411;DHT22;2218;51.408;7.208;2023-03-31T02:14:20;19.70;42.00
4411;DHT22;2218;51.408;7.208;2023-03-31T02:16:54;19.70;42.00
4411;DHT22;2218;51.408;7.208;2023-03-31T02:19:30;19.70;42.00
4411;DHT22;2218;51.408;7.208;2023-03-31T02:22:01;19.70;42.00
4411;DHT22;2218;51.408;7.208;2023-03-31T02:24:32;19.70;42.60
4411;DHT22;2218;51.408;7.208;2023-03-31T02:27:06;19.70;42.10
4411;DHT22;2218;51.408;7.208;2023-03-31T02:29:41;19.70;42.10
4411;DHT22;2218;51.408;7.208;2023-03-31T02:32:12;19.60;42.10
4411;DHT22;2218;51.408;7.208;2023-03-31T02:34:45;19.60;42.10
4411;DHT22;2218;51.408;7.208;2023-03-31T02:37:12;19.70;42.20
4411;DHT22;2218;51.408;7.208;2023-03-31T02:39:45;19.70;42.10
4411;DHT22;2218;51.408;7.208;2023-03-31T02:42:15;19.60;42.10
4411;DHT22;2218;51.408;7.208;2023-03-31T02:44:44;19.70;42.20
4411;DHT22;2218;51.408;7.208;2023-03-31T02:47:12;19.70;42.10
4411;DHT22;2218;51.408;7.208;2023-03-31T02:49:46;19.60;42.10
4411;DHT22;2218;51.408;7.208;2023-03-31T02:52:29;19.70;42.20
4411;DHT22;2218;51.408;7.208;2023-03-31T02:55:30;19.60;42.20
4411;DHT22;2218;51.408;7.208;2023-03-31T02:58:23;19.70;42.20
4411;DHT22;2218;51.408;7.208;2023-03-31T03:01:10;19.60;42.20
4411;DHT22;2218;51.408;7.208;2023-03-31T03:04:00;19.70;42.20
4411;DHT22;2218;51.408;7.208;2023-03-31T03:06:41;19.60;42.20
4411;DHT22;2218;51.408;7.208;2023-03-31T03:09:30;19.70;42.30
4411;DHT22;2218;51.408;7.208;2023-03-31T03:12:09;19.70;42.30
4411;DHT22;2218;51.408;7.208;2023-03-31T03:14:45;19.70;42.30
4411;DHT22;2218;51.408;7.208;2023-03-31T03:17:22;19.70;42.30
4411;DHT22;2218;51.408;7.208;2023-03-31T03:19:54;19.60;42.30
4411;DHT22;2218;51.408;7.208;2023-03-31T03:22:22;19.70;42.40
4411;DHT22;2218;51.408;7.208;2023-03-31T03:24:50;19.70;42.40
4411;DHT22;2218;51.408;7.208;2023-03-31T03:27:18;19.70;42.40
4411;DHT22;2218;51.408;7.208;2023-03-31T03:29:46;19.70;42.40
4411;DHT22;2218;51.408;7.208;2023-03-31T03:32:13;19.70;43.00
4411;DHT22;2218;51.408;7.208;2023-03-31T03:34:42;19.70;42.50
4411;DHT22;2218;51.408;7.208;2023-03-31T03:37:09;19.60;42.40
4411;DHT22;2218;51.408;7.208;2023-03-31T03:39:36;19.60;42.40
4411;DHT22;2218;51.408;7.208;2023-03-31T03:42:03;19.60;42.40
4411;DHT22;2218;51.408;7.208;2023-03-31T03:44:30;19.60;42.40
4411;DHT22;2218;51.408;7.208;2023-03-31T03:46:57;19.70;42.50
4411;DHT22;2218;51.408;7.208;2023-03-31T03:49:24;19.60;42.40
4411;DHT22;2218;51.408;7.208;2023-03-31T03:51:52;19.70;42.50
4411;DHT22;2218;51.408;7.208;2023-03-31T03:54:19;19.60;42.50
4411;DHT22;2218;51.408;7.208;2023-03-31T03:56:46;19.60;42.50
4411;DHT22;2218;51.408;7.208;2023-03-31T03:59:13;19.70;42.50
4411;DHT22;2218;51.408;7.208;2023-03-31T04:01:40;19.60;42.50
4411;DHT22;2218;51.408;7.208;2023-03-31T04:04:07;19.70;42.60
4411;DHT22;2218;51.408;7.208;2023-03-31T04:06:34;19.60;42.50
4411;DHT22;2218;51.408;7.208;2023-03-31T04:09:02;19.60;42.50
4411;DHT22;2218;51.408;7.208;2023-03-31T04:11:30;19.60;42.50
4411;DHT22;2218;51.408;7.208;2023-03-31T04:13:57;19.60;42.60
4411;DHT22;2218;51.408;7.208;2023-03-31T04:16:24;19.60;42.60
4411;DHT22;2218;51.408;7.208;2023-03-31T04:18:51;19.70;42.70
4411;DHT22;2218;51.408;7.208;2023-03-31T04:21:21;19.70;42.80
4411;DHT22;2218;51.408;7.208;2023-03-31T04:23:49;19.70;42.80
4411;DHT22;2218;51.408;7.208;2023-03-31T04:26:26;19.80;42.80
4411;DHT22;2218;51.408;7.208;2023-03-31T04:29:03;19.80;42.80
4411;DHT22;2218;51.408;7.208;2023-03-31T04:31:32;19.80;42.70
4411;DHT22;2218;51.408;7.208;2023-03-31T04:34:03;19.80;42.70
4411;DHT22;2218;51.408;7.208;2023-03-31T04:36:31;19.80;42.70
4411;DHT22;2218;51.408;7.208;2023-03-31T04:38:58;19.90;42.80
4411;DHT22;2218;51.408;7.208;2023-03-31T04:41:27;19.90;42.80
4411;DHT22;2218;51.408;7.208;2023-03-31T04:43:54;19.90;42.80
4411;DHT22;2218;51.408;7.208;2023-03-31T04:46:21;19.90;42.80
4411;DHT22;2218;51.408;7.208;2023-03-31T04:48:48;19.90;42.80
4411;DHT22;2218;51.408;7.208;2023-03-31T04:51:15;19.90;42.70
4411;DHT22;2218;51.408;7.208;2023-03-31T04:53:42;19.90;42.70
4411;DHT22;2218;51.408;7.208;2023-03-31T04:56:09;19.90;42.80
4411;DHT22;2218;51.408;7.208;2023-03-31T04:58:38;19.90;42.70
4411;DHT22;2218;51.408;7.208;2023-03-31T05:01:05;19.90;42.60
4411;DHT22;2218;51.408;7.208;2023-03-31T05:03:32;19.90;42.60
4411;DHT22;2218;51.408;7.208;2023-03-31T05:05:59;19.90;42.70
4411;DHT22;2218;51.408;7.208;2023-03-31T05:08:26;19.90;42.60
4411;DHT22;2218;51.408;7.208;2023-03-31T05:10:53;19.90;42.70
4411;DHT22;2218;51.408;7.208;2023-03-31T05:13:20;19.90;42.60
4411;DHT22;2218;51.408;7.208;2023-03-31T05:15:48;19.90;42.60
4411;DHT22;2218;51.408;7.208;2023-03-31T05:18:16;19.90;42.60
4411;DHT22;2218;51.408;7.208;2023-03-31T05:20:43;19.90;42.60
4411;DHT22;2218;51.408;7.208;2023-03-31T05:23:11;19.90;42.60
4411;DHT22;2218;51.408;7.208;2023-03-31T05:25:38;19.90;42.60
4411;DHT22;2218;51.408;7.208;2023-03-31T05:28:07;19.90;42.50
4411;DHT22;2218;51.408;7.208;2023-03-31T05:30:34;19.90;42.50
4411;DHT22;2218;51.408;7.208;2023-03-31T05:33:02;19.90;42.60
4411;DHT22;2218;51.408;7.208;2023-03-31T05:35:29;19.90;42.60
4411;DHT22;2218;51.408;7.208;2023-03-31T05:37:56;19.90;42.50
4411;DHT22;2218;51.408;7.208;2023-03-31T05:40:23;19.90;42.60
4411;DHT22;2218;51.408;7.208;2023-03-31T05:42:50;19.90;42.60
4411;DHT22;2218;51.408;7.208;2023-03-31T05:45:17;19.90;42.60
4411;DHT22;2218;51.408;7.208;2023-03-31T05:47:44;19.90;42.60
4411;DHT22;2218;51.408;7.208;2023-03-31T05:50:12;19.90;42.60
4411;DHT22;2218;51.408;7.208;2023-03-31T05:52:39;19.90;42.60
4411;DHT22;2218;51.408;7.208;2023-03-31T05:55:07;19.80;42.50
4411;DHT22;2218;51.408;7.208;2023-03-31T05:57:35;19.90;42.60
4411;DHT22;2218;51.408;7.208;2023-03-31T06:00:02;19.90;42.70
4411;DHT22;2218;51.408;7.208;2023-03-31T06:02:32;19.90;42.70
4411;DHT22;2218;51.408;7.208;2023-03-31T06:04:59;19.90;42.60
4411;DHT22;2218;51.408;7.208;2023-03-31T06:07:27;19.80;42.50
4411;DHT22;2218;51.408;7.208;2023-03-31T06:09:54;19.90;42.60
4411;DHT22;2218;51.408;7.208;2023-03-31T06:12:21;19.80;42.50
4411;DHT22;2218;51.408;7.208;2023-03-31T06:14:48;19.90;42.60
4411;DHT22;2218;51.408;7.208;2023-03-31T06:17:15;19.80;42.50
4411;DHT22;2218;51.408;7.208;2023-03-31T06:19:41;19.80;42.50
4411;DHT22;2218;51.408;7.208;2023-03-31T06:22:08;19.90;42.60
4411;DHT22;2218;51.408;7.208;2023-03-31T06:24:37;19.90;42.60
4411;DHT22;2218;51.408;7.208;2023-03-31T06:27:05;19.90;42.60
4411;DHT22;2218;51.408;7.208;2023-03-31T06:29:32;19.90;42.90
4411;DHT22;2218;51.408;7.208;2023-03-31T06:31:59;20.00;42.90
4411;DHT22;2218;51.408;7.208;2023-03-31T06:34:26;20.00;42.90
4411;DHT22;2218;51.408;7.208;2023-03-31T06:36:53;20.00;42.90
4411;DHT22;2218;51.408;7.208;2023-03-31T06:39:21;20.00;42.80
4411;DHT22;2218;51.408;7.208;2023-03-31T06:41:49;20.00;42.90
4411;DHT22;2218;51.408;7.208;2023-03-31T06:44:25;20.00;42.80
4411;DHT22;2218;51.408;7.208;2023-03-31T06:46:51;20.00;42.80
4411;DHT22;2218;51.408;7.208;2023-03-31T06:49:19;19.90;42.60
4411;DHT22;2218;51.408;7.208;2023-03-31T06:51:46;19.90;42.60
4411;DHT22;2218;51.408;7.208;2023-03-31T06:54:13;20.00;42.70
4411;DHT22;2218;51.408;7.208;2023-03-31T06:56:40;19.90;42.60
4411;DHT22;2218;51.408;7.208;2023-03-31T06:59:08;19.90;42.60
4411;DHT22;2218;51.408;7.208;2023-03-31T07:01:35;20.00;42.80
4411;DHT22;2218;51.408;7.208;2023-03-31T07:04:03;20.00;42.80
4411;DHT22;2218;51.408;7.208;2023-03-31T07:06:30;20.00;42.80
4411;DHT22;2218;51.408;7.208;2023-03-31T07:08:57;19.90;42.70
4411;DHT22;2218;51.408;7.208;2023-03-31T07:11:24;19.90;42.70
4411;DHT22;2218;51.408;7.208;2023-03-31T07:13:51;19.90;42.70
4411;DHT22;2218;51.408;7.208;2023-03-31T07:16:20;19.90;42.70
4411;DHT22;2218;51.408;7.208;2023-03-31T07:18:48;19.90;42.80
4411;DHT22;2218;51.408;7.208;2023-03-31T07:21:18;19.90;42.80
4411;DHT22;2218;51.408;7.208;2023-03-31T07:23:45;19.90;42.80
4411;DHT22;2218;51.408;7.208;2023-03-31T07:26:13;19.90;42.80
4411;DHT22;2218;51.408;7.208;2023-03-31T07:28:39;19.90;42.80
4411;DHT22;2218;51.408;7.208;2023-03-31T07:31:10;19.90;42.80
4411;DHT22;2218;51.408;7.208;2023-03-31T07:33:39;19.90;42.90
4411;DHT22;2218;51.408;7.208;2023-03-31T07:36:07;19.90;42.90
4411;DHT22;2218;51.408;7.208;2023-03-31T07:38:34;19.90;42.90
4411;DHT22;2218;51.408;7.208;2023-03-31T07:41:01;19.90;43.00
4411;DHT22;2218;51.408;7.208;2023-03-31T07:43:28;19.90;43.00
4411;DHT22;2218;51.408;7.208;2023-03-31T07:45:55;19.90;43.00
4411;DHT22;2218;51.408;7.208;2023-03-31T07:48:22;19.90;43.10
4411;DHT22;2218;51.408;7.208;2023-03-31T07:50:50;19.90;43.10
4411;DHT22;2218;51.408;7.208;2023-03-31T07:53:26;19.90;43.10
4411;DHT22;2218;51.408;7.208;2023-03-31T07:55:54;19.90;43.10
4411;DHT22;2218;51.408;7.208;2023-03-31T07:58:21;19.90;43.20
4411;DHT22;2218;51.408;7.208;2023-03-31T08:00:49;19.90;43.10
4411;DHT22;2218;51.408;7.208;2023-03-31T08:03:16;19.90;43.20
4411;DHT22;2218;51.408;7.208;2023-03-31T08:05:43;20.00;43.30
4411;DHT22;2218;51.408;7.208;2023-03-31T08:08:12;20.00;43.30
4411;DHT22;2218;51.408;7.208;2023-03-31T08:10:39;20.00;43.30
4411;DHT22;2218;51.408;7.208;2023-03-31T08:13:06;19.90;43.20
4411;DHT22;2218;51.408;7.208;2023-03-31T08:15:32;20.00;43.40
4411;DHT22;2218;51.408;7.208;2023-03-31T08:17:59;19.90;43.20
4411;DHT22;2218;51.408;7.208;2023-03-31T08:20:26;20.00;43.20
4411;DHT22;2218;51.408;7.208;2023-03-31T08:22:53;20.00;43.20
4411;DHT22;2218;51.408;7.208;2023-03-31T08:25:22;20.00;43.20
4411;DHT22;2218;51.408;7.208;2023-03-31T08:27:49;20.00;43.20
4411;DHT22;2218;51.408;7.208;2023-03-31T08:30:18;20.00;43.20
4411;DHT22;2218;51.408;7.208;2023-03-31T08:32:45;20.00;43.20
4411;DHT22;2218;51.408;7.208;2023-03-31T08:35:12;20.00;43.20
4411;DHT22;2218;51.408;7.208;2023-03-31T08:37:39;20.00;43.20
4411;DHT22;2218;51.408;7.208;2023-03-31T08:40:07;20.00;43.20
4411;DHT22;2218;51.408;7.208;2023-03-31T08:42:45;20.00;43.20
4411;DHT22;2218;51.408;7.208;2023-03-31T08:45:20;20.00;43.20
4411;DHT22;2218;51.408;7.208;2023-03-31T08:47:52;20.00;43.20
4411;DHT22;2218;51.408;7.208;2023-03-31T08:50:26;20.00;43.20
4411;DHT22;2218;51.408;7.208;2023-03-31T08:53:00;20.00;43.20
4411;DHT22;2218;51.408;7.208;2023-03-31T08:55:35;20.00;43.20
4411;DHT22;2218;51.408;7.208;2023-03-31T08:58:19;20.00;43.20
4411;DHT22;2218;51.408;7.208;2023-03-31T09:01:02;20.00;43.60
4411;DHT22;2218;51.408;7.208;2023-03-31T09:03:44;20.00;43.20
4411;DHT22;2218;51.408;7.208;2023-03-31T09:06:22;20.00;43.20
4411;DHT22;2218;51.408;7.208;2023-03-31T09:09:00;20.00;43.20
4411;DHT22;2218;51.408;7.208;2023-03-31T09:11:32;20.00;43.20
4411;DHT22;2218;51.408;7.208;2023-03-31T09:14:14;20.00;43.20
4411;DHT22;2218;51.408;7.208;2023-03-31T09:16:56;20.00;43.10
4411;DHT22;2218;51.408;7.208;2023-03-31T09:19:34;20.00;43.20
4411;DHT22;2218;51.408;7.208;2023-03-31T09:22:08;20.00;43.20
4411;DHT22;2218;51.408;7.208;2023-03-31T09:24:48;20.00;43.20
4411;DHT22;2218;51.408;7.208;2023-03-31T09:27:23;20.00;43.10
4411;DHT22;2218;51.408;7.208;2023-03-31T09:30:00;20.00;43.10
4411;DHT22;2218;51.408;7.208;2023-03-31T09:32:30;20.00;43.10
4411;DHT22;2218;51.408;7.208;2023-03-31T09:35:01;20.00;43.10
4411;DHT22;2218;51.408;7.208;2023-03-31T09:37:39;20.00;43.10
4411;DHT22;2218;51.408;7.208;2023-03-31T09:40:15;20.00;43.00
4411;DHT22;2218;51.408;7.208;2023-03-31T09:42:45;20.00;43.00
4411;DHT22;2218;51.408;7.208;2023-03-31T09:45:16;20.00;43.00
4411;DHT22;2218;51.408;7.208;2023-03-31T09:47:48;20.00;43.00
4411;DHT22;2218;51.408;7.208;2023-03-31T09:50:17;20.00;43.10
4411;DHT22;2218;51.408;7.208;2023-03-31T09:52:49;20.10;43.10
4411;DHT22;2218;51.408;7.208;2023-03-31T09:55:20;20.10;43.10
4411;DHT22;2218;51.408;7.208;2023-03-31T09:57:49;20.00;43.00
4411;DHT22;2218;51.408;7.208;2023-03-31T10:00:21;20.00;43.00
4411;DHT22;2218;51.408;7.208;2023-03-31T10:02:49;20.10;43.10
4411;DHT22;2218;51.408;7.208;2023-03-31T10:05:25;20.10;43.70
4411;DHT22;2218;51.408;7.208;2023-03-31T10:08:23;20.00;43.10
4411;DHT22;2218;51.408;7.208;2023-03-31T10:10:54;20.00;43.20
4411;DHT22;2218;51.408;7.208;2023-03-31T10:13:24;20.00;43.10
4411;DHT22;2218;51.408;7.208;2023-03-31T10:16:02;20.00;43.10
4411;DHT22;2218;51.408;7.208;2023-03-31T10:18:34;20.10;43.20
4411;DHT22;2218;51.408;7.208;2023-03-31T10:21:04;20.10;43.20
4411;DHT22;2218;51.408;7.208;2023-03-31T10:23:34;20.10;43.20
4411;DHT22;2218;51.408;7.208;2023-03-31T10:26:03;20.10;43.20
4411;DHT22;2218;51.408;7.208;2023-03-31T10:28:32;20.10;43.20
4411;DHT22;2218;51.408;7.208;2023-03-31T10:31:03;20.10;43.20
4411;DHT22;2218;51.408;7.208;2023-03-31T10:33:33;20.00;43.10
4411;DHT22;2218;51.408;7.208;2023-03-31T10:36:16;20.10;43.20
4411;DHT22;2218;51.408;7.208;2023-03-31T10:38:48;20.10;43.20
4411;DHT22;2218;51.408;7.208;2023-03-31T10:41:19;20.10;43.20
4411;DHT22;2218;51.408;7.208;2023-03-31T10:43:50;20.10;43.20
4411;DHT22;2218;51.408;7.208;2023-03-31T10:46:20;20.10;43.20
4411;DHT22;2218;51.408;7.208;2023-03-31T10:49:14;20.00;43.30
4411;DHT22;2218;51.408;7.208;2023-03-31T10:51:48;20.10;43.40
4411;DHT22;2218;51.408;7.208;2023-03-31T10:54:15;20.10;43.40
4411;DHT22;2218;51.408;7.208;2023-03-31T10:56:45;20.10;43.40
4411;DHT22;2218;51.408;7.208;2023-03-31T10:59:27;20.10;43.40
4411;DHT22;2218;51.408;7.208;2023-03-31T11:02:25;20.10;43.40
4411;DHT22;2218;51.408;7.208;2023-03-31T11:05:14;20.10;43.40
4411;DHT22;2218;51.408;7.208;2023-03-31T11:07:57;20.10;43.40
4411;DHT22;2218;51.408;7.208;2023-03-31T11:10:46;20.10;43.30
4411;DHT22;2218;51.408;7.208;2023-03-31T11:13:24;20.10;43.40
4411;DHT22;2218;51.408;7.208;2023-03-31T11:16:01;20.20;43.40
4411;DHT22;2218;51.408;7.208;2023-03-31T11:18:53;20.10;43.30
4411;DHT22;2218;51.408;7.208;2023-03-31T11:21:37;20.20;43.50
4411;DHT22;2218;51.408;7.208;2023-03-31T11:24:20;20.10;43.40
4411;DHT22;2218;51.408;7.208;2023-03-31T11:27:19;20.20;43.50
4411;DHT22;2218;51.408;7.208;2023-03-31T11:30:00;20.20;43.80
4411;DHT22;2218;51.408;7.208;2023-03-31T11:32:47;20.20;43.80
4411;DHT22;2218;51.408;7.208;2023-03-31T11:35:42;20.10;43.80
4411;DHT22;2218;51.408;7.208;2023-03-31T11:38:38;20.10;43.80
4411;DHT22;2218;51.408;7.208;2023-03-31T11:41:19;20.20;43.90
4411;DHT22;2218;51.408;7.208;2023-03-31T11:44:00;20.10;43.90
4411;DHT22;2218;51.408;7.208;2023-03-31T11:46:37;20.20;44.10
4411;DHT22;2218;51.408;7.208;2023-03-31T11:49:16;20.20;44.00
4411;DHT22;2218;51.408;7.208;2023-03-31T11:51:52;20.20;44.00
4411;DHT22;2218;51.408;7.208;2023-03-31T11:54:26;20.10;43.90
4411;DHT22;2218;51.408;7.208;2023-03-31T11:56:57;20.20;44.00
4411;DHT22;2218;51.408;7.208;2023-03-31T11:59:29;20.20;44.10
4411;DHT22;2218;51.408;7.208;2023-03-31T12:02:03;20.20;44.10
4411;DHT22;2218;51.408;7.208;2023-03-31T12:04:43;20.20;44.10
4411;DHT22;2218;51.408;7.208;2023-03-31T12:07:21;20.20;44.10
4411;DHT22;2218;51.408;7.208;2023-03-31T12:09:58;20.20;44.10
4411;DHT22;2218;51.408;7.208;2023-03-31T12:12:33;20.20;44.10
4411;DHT22;2218;51.408;7.208;2023-03-31T12:15:12;20.20;44.10
4411;DHT22;2218;51.408;7.208;2023-03-31T12:17:46;20.20;44.60
4411;DHT22;2218;51.408;7.208;2023-03-31T12:20:26;20.20;44.10
4411;DHT22;2218;51.408;7.208;2023-03-31T12:23:01;20.20;44.10
4411;DHT22;2218;51.408;7.208;2023-03-31T12:25:41;20.20;44.10
4411;DHT22;2218;51.408;7.208;2023-03-31T12:28:15;20.20;44.10
4411;DHT22;2218;51.408;7.208;2023-03-31T12:30:44;20.20;44.10
4411;DHT22;2218;51.408;7.208;2023-03-31T12:33:17;20.20;44.00
4411;DHT22;2218;51.408;7.208;2023-03-31T12:36:02;20.20;44.00
4411;DHT22;2218;51.408;7.208;2023-03-31T12:38:49;20.20;44.00
4411;DHT22;2218;51.408;7.208;2023-03-31T12:41:31;20.20;44.00
4411;DHT22;2218;51.408;7.208;2023-03-31T12:44:27;20.20;44.00
4411;DHT22;2218;51.408;7.208;2023-03-31T12:47:17;20.20;44.00
4411;DHT22;2218;51.408;7.208;2023-03-31T12:50:00;20.20;44.00
4411;DHT22;2218;51.408;7.208;2023-03-31T12:52:43;20.20;44.00
4411;DHT22;2218;51.408;7.208;2023-03-31T12:55:35;20.20;44.00
4411;DHT22;2218;51.408;7.208;2023-03-31T12:58:36;20.20;44.00
4411;DHT22;2218;51.408;7.208;2023-03-31T13:01:20;20.20;44.00
4411;DHT22;2218;51.408;7.208;2023-03-31T13:04:07;20.20;44.00
4411;DHT22;2218;51.408;7.208;2023-03-31T13:06:55;20.20;44.00
4411;DHT22;2218;51.408;7.208;2023-03-31T13:09:44;20.20;43.90
4411;DHT22;2218;51.408;7.208;2023-03-31T13:12:21;20.20;44.00
4411;DHT22;2218;51.408;7.208;2023-03-31T13:14:53;20.30;44.10
4411;DHT22;2218;51.408;7.208;2023-03-31T13:17:29;20.30;44.10
4411;DHT22;2218;51.408;7.208;2023-03-31T13:20:16;20.30;44.30
4411;DHT22;2218;51.408;7.208;2023-03-31T13:23:06;20.30;44.90
4411;DHT22;2218;51.408;7.208;2023-03-31T13:25:46;20.30;44.90
4411;DHT22;2218;51.408;7.208;2023-03-31T13:28:36;20.30;44.80
4411;DHT22;2218;51.408;7.208;2023-03-31T13:31:07;20.30;44.90
4411;DHT22;2218;51.408;7.208;2023-03-31T13:33:52;20.30;45.00
4411;DHT22;2218;51.408;7.208;2023-03-31T13:36:56;20.30;45.00
4411;DHT22;2218;51.408;7.208;2023-03-31T13:39:59;20.30;45.00
4411;DHT22;2218;51.408;7.208;2023-03-31T13:43:03;20.30;45.00
4411;DHT22;2218;51.408;7.208;2023-03-31T13:45:53;20.30;45.00
4411;DHT22;2218;51.408;7.208;2023-03-31T13:48:42;20.30;45.00
4411;DHT22;2218;51.408;7.208;2023-03-31T13:51:36;20.30;45.00
4411;DHT22;2218;51.408;7.208;2023-03-31T13:54:51;20.30;44.90
4411;DHT22;2218;51.408;7.208;2023-03-31T14:00:52;20.30;44.80
4411;DHT22;2218;51.408;7.208;2023-03-31T14:03:45;20.30;44.80
4411;DHT22;2218;51.408;7.208;2023-03-31T14:06:28;20.30;44.90
4411;DHT22;2218;51.408;7.208;2023-03-31T14:09:03;20.30;44.90
4411;DHT22;2218;51.408;7.208;2023-03-31T14:11:33;20.30;45.00
4411;DHT22;2218;51.408;7.208;2023-03-31T14:14:03;20.30;45.00
4411;DHT22;2218;51.408;7.208;2023-03-31T14:16:36;20.30;45.10
4411;DHT22;2218;51.408;7.208;2023-03-31T14:19:21;20.30;45.10
4411;DHT22;2218;51.408;7.208;2023-03-31T14:22:11;20.30;45.10
4411;DHT22;2218;51.408;7.208;2023-03-31T14:24:50;20.30;45.20
4411;DHT22;2218;51.408;7.208;2023-03-31T14:27:39;20.30;45.10
4411;DHT22;2218;51.408;7.208;2023-03-31T14:30:24;20.30;45.10
4411;DHT22;2218;51.408;7.208;2023-03-31T14:33:08;20.30;45.20
4411;DHT22;2218;51.408;7.208;2023-03-31T14:35:52;20.30;45.10
4411;DHT22;2218;51.408;7.208;2023-03-31T14:38:24;20.30;45.10
4411;DHT22;2218;51.408;7.208;2023-03-31T14:40:55;20.30;44.90
4411;DHT22;2218;51.408;7.208;2023-03-31T14:43:27;20.30;45.00
4411;DHT22;2218;51.408;7.208;2023-03-31T14:45:58;20.30;44.80
4411;DHT22;2218;51.408;7.208;2023-03-31T14:48:29;20.30;44.70
4411;DHT22;2218;51.408;7.208;2023-03-31T14:51:01;20.30;44.80
4411;DHT22;2218;51.408;7.208;2023-03-31T14:53:29;20.30;44.60
4411;DHT22;2218;51.408;7.208;2023-03-31T14:56:00;20.30;44.40
4411;DHT22;2218;51.408;7.208;2023-03-31T14:58:35;20.30;44.60
4411;DHT22;2218;51.408;7.208;2023-03-31T15:01:06;20.30;44.40
4411;DHT22;2218;51.408;7.208;2023-03-31T15:03:39;20.30;44.50
4411;DHT22;2218;51.408;7.208;2023-03-31T15:06:07;20.30;44.50
4411;DHT22;2218;51.408;7.208;2023-03-31T15:08:35;20.30;44.20
4411;DHT22;2218;51.408;7.208;2023-03-31T15:11:05;20.30;44.20
4411;DHT22;2218;51.408;7.208;2023-03-31T15:13:36;20.30;44.20
4411;DHT22;2218;51.408;7.208;2023-03-31T15:16:20;20.30;44.20
4411;DHT22;2218;51.408;7.208;2023-03-31T15:18:59;20.30;44.30
4411;DHT22;2218;51.408;7.208;2023-03-31T15:21:35;20.30;44.30
4411;DHT22;2218;51.408;7.208;2023-03-31T15:24:04;20.30;43.90
4411;DHT22;2218;51.408;7.208;2023-03-31T15:26:35;20.30;43.90
4411;DHT22;2218;51.408;7.208;2023-03-31T15:29:07;20.30;44.10
4411;DHT22;2218;51.408;7.208;2023-03-31T15:31:39;20.30;44.10
4411;DHT22;2218;51.408;7.208;2023-03-31T15:34:21;20.30;44.10
4411;DHT22;2218;51.408;7.208;2023-03-31T15:36:53;20.30;43.90
4411;DHT22;2218;51.408;7.208;2023-03-31T15:39:22;20.30;44.00
4411;DHT22;2218;51.408;7.208;2023-03-31T15:41:50;20.30;44.00
4411;DHT22;2218;51.408;7.208;2023-03-31T15:44:34;20.20;44.00
4411;DHT22;2218;51.408;7.208;2023-03-31T15:47:10;20.30;44.00
4411;DHT22;2218;51.408;7.208;2023-03-31T15:50:07;20.20;43.90
4411;DHT22;2218;51.408;7.208;2023-03-31T15:52:46;20.20;43.90
4411;DHT22;2218;51.408;7.208;2023-03-31T15:55:24;20.20;43.90
4411;DHT22;2218;51.408;7.208;2023-03-31T15:57:55;20.20;43.90
4411;DHT22;2218;51.408;7.208;2023-03-31T16:00:40;20.20;43.90
4411;DHT22;2218;51.408;7.208;2023-03-31T16:03:16;20.20;43.90
4411;DHT22;2218;51.408;7.208;2023-03-31T16:05:52;20.20;43.90
4411;DHT22;2218;51.408;7.208;2023-03-31T16:08:24;20.20;43.90
4411;DHT22;2218;51.408;7.208;2023-03-31T16:10:57;20.20;44.00
4411;DHT22;2218;51.408;7.208;2023-03-31T16:13:28;20.20;44.00
4411;DHT22;2218;51.408;7.208;2023-03-31T16:15:58;20.20;44.00
4411;DHT22;2218;51.408;7.208;2023-03-31T16:18:30;20.20;44.10
4411;DHT22;2218;51.408;7.208;2023-03-31T16:21:04;20.20;44.10
4411;DHT22;2218;51.408;7.208;2023-03-31T16:23:36;20.20;44.10
4411;DHT22;2218;51.408;7.208;2023-03-31T16:26:06;20.20;44.20
4411;DHT22;2218;51.408;7.208;2023-03-31T16:28:35;20.20;44.20
4411;DHT22;2218;51.408;7.208;2023-03-31T16:31:04;20.20;44.20
4411;DHT22;2218;51.408;7.208;2023-03-31T16:33:53;20.20;44.20
4411;DHT22;2218;51.408;7.208;2023-03-31T16:36:23;20.20;44.20
4411;DHT22;2218;51.408;7.208;2023-03-31T16:38:51;20.20;44.10
4411;DHT22;2218;51.408;7.208;2023-03-31T16:41:18;20.20;44.10
4411;DHT22;2218;51.408;7.208;2023-03-31T16:43:47;20.20;44.10
4411;DHT22;2218;51.408;7.208;2023-03-31T16:46:17;20.20;44.10
4411;DHT22;2218;51.408;7.208;2023-03-31T16:48:44;20.20;44.10
4411;DHT22;2218;51.408;7.208;2023-03-31T16:51:11;20.20;44.10
4411;DHT22;2218;51.408;7.208;2023-03-31T16:53:40;20.20;44.10
4411;DHT22;2218;51.408;7.208;2023-03-31T16:56:07;20.20;44.10
4411;DHT22;2218;51.408;7.208;2023-03-31T16:58:34;20.20;44.10